Sloman Themis — 9HA3701 — position and weather

sailwx.info

Track history (hours):
 
Tides and Currents Weather Stations Pressure Air Temp Water Temp Dewpoint Dewpoint Depression Visibility Wind Speed Wind Dir Waves Ship Positions

Sloman Themis

Last reported at 2017-Sep-20 06:19 UTC. Time now 2017-Sep-24 21:25 UTC.
Position N 28°31' W 016°10'.

Length 171 m; draft 10.7 m.

Type: Ship (hazmat cat D). MMSI: 229899000.

Date/timePositionNaut miles runAvg speedWind from/ knotsBaromVisibWave heightAir tempDewpointWater temp
2017-Sep-20 06:19N 28°31' W 016°10'1 2.4
2017-Sep-20 06:00N 28°30' W 016°10'2 4.3
2017-Sep-20 05:30N 28°28' W 016°11'2 3.2
2017-Sep-20 05:00N 28°28' W 016°09'612.2
2017-Sep-20 04:30N 28°31' W 016°03'612.1
2017-Sep-20 04:00N 28°35' W 015°57'612.0
2017-Sep-20 03:30N 28°38' W 015°52'612.0
2017-Sep-20 03:00N 28°42' W 015°47'611.9
2017-Sep-20 02:30N 28°46' W 015°42'611.9
2017-Sep-20 02:00N 28°50' W 015°37'612.0
2017-Sep-20 01:30N 28°54' W 015°32'612.0
2017-Sep-20 01:00N 28°58' W 015°27'612.1
2017-Sep-20 00:30N 29°02' W 015°22'612.0
2017-Sep-19 23:59N 29°07' W 015°16'611.7
2017-Sep-19 23:26N 29°11' W 015°11'611.4
2017-Sep-19 22:55N 29°15' W 015°06'711.6
2017-Sep-19 22:19N 29°20' W 015°00'411.7
2017-Sep-19 22:00N 29°22' W 014°57'611.9
2017-Sep-19 21:30N 29°26' W 014°52'612.0
2017-Sep-19 21:00N 29°30' W 014°47'612.0
2017-Sep-19 20:30N 29°35' W 014°42'611.9
2017-Sep-19 20:00N 29°38' W 014°37'611.9
2017-Sep-19 19:30N 29°42' W 014°31'611.7
2017-Sep-19 19:00N 29°46' W 014°27'611.8
2017-Sep-19 18:30N 29°50' W 014°22'611.9
2017-Sep-19 17:58N 29°54' W 014°16'612.1
2017-Sep-19 17:30N 29°58' W 014°11'712.1
2017-Sep-19 16:56N 30°03' W 014°05'1611.9
2017-Sep-19 15:34N 30°14' W 013°51'211.7
2017-Sep-19 15:24N 30°15' W 013°50'611.5
2017-Sep-19 14:53N 30°19' W 013°45'411.4
2017-Sep-19 14:30N 30°22' W 013°41'611.7
2017-Sep-19 14:00N 30°26' W 013°36'1211.7
2017-Sep-19 12:58N 30°34' W 013°26'511.6
2017-Sep-19 12:30N 30°38' W 013°21'1511.5
2017-Sep-19 11:13N 30°47' W 013°08'511.5
2017-Sep-19 10:47N 30°51' W 013°04'4612.4
2017-Sep-19 07:02N 31°22' W 012°24'113.0
2017-Sep-19 07:00N 31°22' W 012°23'612.9
2017-Sep-19 06:30N 31°27' W 012°18'713.0
2017-Sep-19 06:00N 31°31' W 012°12'1012.7
2017-Sep-19 05:13N 31°38' W 012°03'312.3
2017-Sep-19 05:00N 31°39' W 012°01'812.0
2017-Sep-19 04:18N 31°45' W 011°54'2012.2
2017-Sep-19 02:38N 31°59' W 011°36'28312.5
2017-Sep-18 03:56N 35°09' W 007°24'511.9
2017-Sep-18 03:30N 35°12' W 007°19'612.0
2017-Sep-18 03:00N 35°16' W 007°14'8911.7
2017-Sep-17 19:24N 35°57' W 005°36'410.6
2017-Sep-17 19:00N 35°58' W 005°32'5 9.2
2017-Sep-17 18:30N 35°60' W 005°26'4 8.8
2017-Sep-17 18:00N 36°04' W 005°24'610.9
2017-Sep-17 17:30N 36°09' W 005°24'1 0.0
2017-Sep-15 15:24N 36°08' W 005°24'3 7.1
2017-Sep-15 14:57N 36°06' W 005°22'3 4.3
2017-Sep-15 14:20N 36°03' W 005°20'2 4.9
2017-Sep-15 13:59N 36°02' W 005°21'511.2
2017-Sep-15 13:30N 35°58' W 005°25'94 7.9
2017-Sep-15 01:41N 35°05' W 007°00'2511.5
2017-Sep-14 23:31N 34°47' W 007°22'211.6
2017-Sep-14 23:22N 34°46' W 007°23'42 3.8
2017-Sep-14 12:15N 34°17' W 007°59'7 1.0
2017-Sep-14 05:48N 34°21' W 008°05'0 1.0
2017-Sep-14 05:27N 34°21' W 008°06'6 8.6
2017-Sep-14 04:47N 34°18' W 008°11'311.0
2017-Sep-14 04:30N 34°16' W 008°14'611.1
2017-Sep-14 03:59N 34°13' W 008°20'1111.0
2017-Sep-14 03:01N 34°06' W 008°31'011.0
2017-Sep-14 03:00N 34°06' W 008°31'37 3.0
2017-Sep-13 14:29N 33°46' W 009°08'4 8.4
2017-Sep-13 14:00N 33°44' W 009°13'510.0
2017-Sep-13 13:30N 33°41' W 009°18'610.1
2017-Sep-13 12:54N 33°38' W 009°24'410.0
2017-Sep-13 12:30N 33°35' W 009°28'510.1
2017-Sep-13 12:00N 33°33' W 009°33'510.4
2017-Sep-13 11:30N 33°30' W 009°38'510.3
2017-Sep-13 11:00N 33°27' W 009°43'610.3
2017-Sep-13 10:27N 33°24' W 009°49'2910.5
2017-Sep-13 07:42N 33°07' W 010°17'19910.2
2017-Sep-12 12:08N 30°28' W 012°37'110.3
2017-Sep-12 12:00N 30°27' W 012°38'15510.1
2017-Sep-11 20:43N 28°41' W 014°47'210.3
2017-Sep-11 20:29N 28°39' W 014°49'510.3
2017-Sep-11 20:00N 28°35' W 014°53'510.6
2017-Sep-11 19:30N 28°31' W 014°57'510.8
2017-Sep-11 19:00N 28°28' W 015°02'510.9
2017-Sep-11 18:30N 28°24' W 015°06'611.2
2017-Sep-11 18:00N 28°20' W 015°11'3 5.6
2017-Sep-11 17:30N 28°18' W 015°13'0 0.6
2017-Sep-11 17:00N 28°18' W 015°13'0 0.6
2017-Sep-11 16:30N 28°18' W 015°12'0 0.6
2017-Sep-11 16:00N 28°18' W 015°12'0 0.7
2017-Sep-11 15:30N 28°18' W 015°12'0 0.9
2017-Sep-11 15:00N 28°19' W 015°11'1 1.0
2017-Sep-11 14:30N 28°19' W 015°11'0 0.8
2017-Sep-11 14:00N 28°19' W 015°10'2 3.7
2017-Sep-11 13:30N 28°17' W 015°11'510.3
2017-Sep-11 13:01N 28°13' W 015°14'612.0
2017-Sep-11 12:31N 28°10' W 015°20'5 9.1
2017-Sep-11 12:00N 28°08' W 015°25'1 1.9
2017-Sep-11 11:30N 28°08' W 015°25'0 0.0
2017-Sep-11 11:00N 28°08' W 015°25'0 0.0
2017-Sep-11 10:30N 28°08' W 015°25'0 0.0
2017-Sep-11 10:00N 28°08' W 015°25'0 0.0
2017-Sep-11 09:30N 28°08' W 015°25'0 0.0
2017-Sep-11 09:00N 28°08' W 015°25'0 0.0
2017-Sep-11 08:30N 28°08' W 015°25'0 0.0
2017-Sep-11 08:00N 28°08' W 015°25'0 0.0
2017-Sep-11 07:30N 28°08' W 015°25'0 0.0
2017-Sep-11 07:00N 28°08' W 015°25'0 0.0
2017-Sep-11 06:30N 28°08' W 015°25'0 0.0
2017-Sep-11 06:00N 28°08' W 015°25'0 0.0
2017-Sep-11 05:30N 28°08' W 015°25'0 0.0
2017-Sep-11 05:00N 28°08' W 015°25'0 0.0
2017-Sep-11 04:30N 28°08' W 015°25'0 0.0
2017-Sep-11 04:00N 28°08' W 015°25'0 0.0
2017-Sep-11 03:30N 28°08' W 015°25'0 0.0
2017-Sep-11 03:00N 28°08' W 015°25'0 0.0
2017-Sep-11 02:30N 28°08' W 015°25'0 0.0
2017-Sep-11 02:00N 28°08' W 015°25'0 0.0
2017-Sep-11 01:30N 28°08' W 015°25'0 0.0
2017-Sep-11 01:00N 28°08' W 015°25'0 0.0
2017-Sep-11 00:30N 28°08' W 015°25'0 0.0
2017-Sep-11 00:00N 28°08' W 015°25'0 0.0
2017-Sep-10 23:21N 28°08' W 015°25'0 0.0
2017-Sep-10 22:51N 28°08' W 015°25'0 0.0
2017-Sep-10 22:21N 28°08' W 015°25'0 0.0
2017-Sep-10 21:51N 28°08' W 015°25'0 0.0
2017-Sep-10 21:21N 28°08' W 015°25'0 0.0
2017-Sep-10 20:54N 28°08' W 015°25'0 0.0
2017-Sep-10 20:24N 28°08' W 015°25'0 0.0
2017-Sep-10 19:54N 28°08' W 015°25'0 0.0
2017-Sep-10 19:24N 28°08' W 015°25'0 0.0
2017-Sep-10 18:54N 28°08' W 015°25'0 0.0
2017-Sep-10 18:24N 28°08' W 015°25'0 0.0
2017-Sep-10 17:54N 28°08' W 015°25'0 0.0
2017-Sep-10 17:24N 28°08' W 015°25'0 0.0
2017-Sep-10 16:54N 28°08' W 015°25'0 0.0
2017-Sep-10 16:12N 28°08' W 015°25'0 0.0
2017-Sep-10 15:57N 28°08' W 015°25'0 0.0
2017-Sep-10 15:24N 28°08' W 015°25'0 0.0
2017-Sep-10 14:57N 28°08' W 015°25'0 0.0
2017-Sep-10 13:57N 28°08' W 015°25'0 0.0
2017-Sep-10 13:27N 28°08' W 015°25'0 0.0
2017-Sep-10 12:57N 28°08' W 015°25'0 0.0
2017-Sep-10 12:27N 28°08' W 015°25'0 0.0
2017-Sep-10 11:57N 28°08' W 015°25'0 0.0
2017-Sep-10 11:27N 28°08' W 015°25'0 0.0
2017-Sep-10 11:00N 28°08' W 015°25'0 0.0
2017-Sep-10 10:30N 28°08' W 015°25'0 0.0
2017-Sep-10 10:00N 28°08' W 015°25'0 0.0
2017-Sep-10 09:30N 28°08' W 015°25'0 0.1
2017-Sep-10 09:00N 28°08' W 015°25'1 2.6
2017-Sep-10 08:30N 28°07' W 015°24'2 4.6
2017-Sep-10 08:00N 28°08' W 015°22'4 8.4
2017-Sep-10 07:30N 28°10' W 015°18'611.5
2017-Sep-10 07:00N 28°14' W 015°13'612.8
2017-Sep-10 06:30N 28°18' W 015°08'  
Track history (hours):
 
Tides and Currents Weather Stations Pressure Air Temp Water Temp Dewpoint Dewpoint Depression Visibility Wind Speed Wind Dir Waves Ship Positions

Sloman Themis

Last reported at 2017-Sep-20 06:19 UTC. Time now 2017-Sep-24 21:25 UTC.
Position N 28°31' W 016°10'.

Length 171 m; draft 10.7 m.

Type: Ship (hazmat cat D). MMSI: 229899000.

Date/timePositionNaut miles runAvg speedWind from/ knotsBaromVisibWave heightAir tempDewpointWater temp
2017-Sep-20 06:19N 28°31' W 016°10'1 2.4
2017-Sep-20 06:00N 28°30' W 016°10'2 4.3
2017-Sep-20 05:30N 28°28' W 016°11'2 3.2
2017-Sep-20 05:00N 28°28' W 016°09'612.2
2017-Sep-20 04:30N 28°31' W 016°03'612.1
2017-Sep-20 04:00N 28°35' W 015°57'612.0
2017-Sep-20 03:30N 28°38' W 015°52'612.0
2017-Sep-20 03:00N 28°42' W 015°47'611.9
2017-Sep-20 02:30N 28°46' W 015°42'611.9
2017-Sep-20 02:00N 28°50' W 015°37'612.0
2017-Sep-20 01:30N 28°54' W 015°32'612.0
2017-Sep-20 01:00N 28°58' W 015°27'612.1
2017-Sep-20 00:30N 29°02' W 015°22'612.0
2017-Sep-19 23:59N 29°07' W 015°16'611.7
2017-Sep-19 23:26N 29°11' W 015°11'611.4
2017-Sep-19 22:55N 29°15' W 015°06'711.6
2017-Sep-19 22:19N 29°20' W 015°00'411.7
2017-Sep-19 22:00N 29°22' W 014°57'611.9
2017-Sep-19 21:30N 29°26' W 014°52'612.0
2017-Sep-19 21:00N 29°30' W 014°47'612.0
2017-Sep-19 20:30N 29°35' W 014°42'611.9
2017-Sep-19 20:00N 29°38' W 014°37'611.9
2017-Sep-19 19:30N 29°42' W 014°31'611.7
2017-Sep-19 19:00N 29°46' W 014°27'611.8
2017-Sep-19 18:30N 29°50' W 014°22'611.9
2017-Sep-19 17:58N 29°54' W 014°16'612.1
2017-Sep-19 17:30N 29°58' W 014°11'712.1
2017-Sep-19 16:56N 30°03' W 014°05'1611.9
2017-Sep-19 15:34N 30°14' W 013°51'211.7
2017-Sep-19 15:24N 30°15' W 013°50'611.5
2017-Sep-19 14:53N 30°19' W 013°45'411.4
2017-Sep-19 14:30N 30°22' W 013°41'611.7
2017-Sep-19 14:00N 30°26' W 013°36'1211.7
2017-Sep-19 12:58N 30°34' W 013°26'511.6
2017-Sep-19 12:30N 30°38' W 013°21'1511.5
2017-Sep-19 11:13N 30°47' W 013°08'511.5
2017-Sep-19 10:47N 30°51' W 013°04'4612.4
2017-Sep-19 07:02N 31°22' W 012°24'113.0
2017-Sep-19 07:00N 31°22' W 012°23'612.9
2017-Sep-19 06:30N 31°27' W 012°18'713.0
2017-Sep-19 06:00N 31°31' W 012°12'1012.7
2017-Sep-19 05:13N 31°38' W 012°03'312.3
2017-Sep-19 05:00N 31°39' W 012°01'812.0
2017-Sep-19 04:18N 31°45' W 011°54'2012.2
2017-Sep-19 02:38N 31°59' W 011°36'28312.5
2017-Sep-18 03:56N 35°09' W 007°24'511.9
2017-Sep-18 03:30N 35°12' W 007°19'612.0
2017-Sep-18 03:00N 35°16' W 007°14'8911.7
2017-Sep-17 19:24N 35°57' W 005°36'410.6
2017-Sep-17 19:00N 35°58' W 005°32'5 9.2
2017-Sep-17 18:30N 35°60' W 005°26'4 8.8
2017-Sep-17 18:00N 36°04' W 005°24'610.9
2017-Sep-17 17:30N 36°09' W 005°24'1 0.0
2017-Sep-15 15:24N 36°08' W 005°24'3 7.1
2017-Sep-15 14:57N 36°06' W 005°22'3 4.3
2017-Sep-15 14:20N 36°03' W 005°20'2 4.9
2017-Sep-15 13:59N 36°02' W 005°21'511.2
2017-Sep-15 13:30N 35°58' W 005°25'94 7.9
2017-Sep-15 01:41N 35°05' W 007°00'2511.5
2017-Sep-14 23:31N 34°47' W 007°22'211.6
2017-Sep-14 23:22N 34°46' W 007°23'42 3.8
2017-Sep-14 12:15N 34°17' W 007°59'7 1.0
2017-Sep-14 05:48N 34°21' W 008°05'0 1.0
2017-Sep-14 05:27N 34°21' W 008°06'6 8.6
2017-Sep-14 04:47N 34°18' W 008°11'311.0
2017-Sep-14 04:30N 34°16' W 008°14'611.1
2017-Sep-14 03:59N 34°13' W 008°20'1111.0
2017-Sep-14 03:01N 34°06' W 008°31'011.0
2017-Sep-14 03:00N 34°06' W 008°31'37 3.0
2017-Sep-13 14:29N 33°46' W 009°08'4 8.4
2017-Sep-13 14:00N 33°44' W 009°13'510.0
2017-Sep-13 13:30N 33°41' W 009°18'610.1
2017-Sep-13 12:54N 33°38' W 009°24'410.0
2017-Sep-13 12:30N 33°35' W 009°28'510.1
2017-Sep-13 12:00N 33°33' W 009°33'510.4
2017-Sep-13 11:30N 33°30' W 009°38'510.3
2017-Sep-13 11:00N 33°27' W 009°43'610.3
2017-Sep-13 10:27N 33°24' W 009°49'2910.5
2017-Sep-13 07:42N 33°07' W 010°17'19910.2
2017-Sep-12 12:08N 30°28' W 012°37'110.3
2017-Sep-12 12:00N 30°27' W 012°38'15510.1
2017-Sep-11 20:43N 28°41' W 014°47'210.3
2017-Sep-11 20:29N 28°39' W 014°49'510.3
2017-Sep-11 20:00N 28°35' W 014°53'510.6
2017-Sep-11 19:30N 28°31' W 014°57'510.8
2017-Sep-11 19:00N 28°28' W 015°02'510.9
2017-Sep-11 18:30N 28°24' W 015°06'611.2
2017-Sep-11 18:00N 28°20' W 015°11'3 5.6
2017-Sep-11 17:30N 28°18' W 015°13'0 0.6
2017-Sep-11 17:00N 28°18' W 015°13'0 0.6
2017-Sep-11 16:30N 28°18' W 015°12'0 0.6
2017-Sep-11 16:00N 28°18' W 015°12'0 0.7
2017-Sep-11 15:30N 28°18' W 015°12'0 0.9
2017-Sep-11 15:00N 28°19' W 015°11'1 1.0
2017-Sep-11 14:30N 28°19' W 015°11'0 0.8
2017-Sep-11 14:00N 28°19' W 015°10'2 3.7
2017-Sep-11 13:30N 28°17' W 015°11'510.3
2017-Sep-11 13:01N 28°13' W 015°14'612.0
2017-Sep-11 12:31N 28°10' W 015°20'5 9.1
2017-Sep-11 12:00N 28°08' W 015°25'1 1.9
2017-Sep-11 11:30N 28°08' W 015°25'0 0.0
2017-Sep-11 11:00N 28°08' W 015°25'0 0.0
2017-Sep-11 10:30N 28°08' W 015°25'0 0.0
2017-Sep-11 10:00N 28°08' W 015°25'0 0.0
2017-Sep-11 09:30N 28°08' W 015°25'0 0.0
2017-Sep-11 09:00N 28°08' W 015°25'0 0.0
2017-Sep-11 08:30N 28°08' W 015°25'0 0.0
2017-Sep-11 08:00N 28°08' W 015°25'0 0.0
2017-Sep-11 07:30N 28°08' W 015°25'0 0.0
2017-Sep-11 07:00N 28°08' W 015°25'0 0.0
2017-Sep-11 06:30N 28°08' W 015°25'0 0.0
2017-Sep-11 06:00N 28°08' W 015°25'0 0.0
2017-Sep-11 05:30N 28°08' W 015°25'0 0.0
2017-Sep-11 05:00N 28°08' W 015°25'0 0.0
2017-Sep-11 04:30N 28°08' W 015°25'0 0.0
2017-Sep-11 04:00N 28°08' W 015°25'0 0.0
2017-Sep-11 03:30N 28°08' W 015°25'0 0.0
2017-Sep-11 03:00N 28°08' W 015°25'0 0.0
2017-Sep-11 02:30N 28°08' W 015°25'0 0.0
2017-Sep-11 02:00N 28°08' W 015°25'0 0.0
2017-Sep-11 01:30N 28°08' W 015°25'0 0.0
2017-Sep-11 01:00N 28°08' W 015°25'0 0.0
2017-Sep-11 00:30N 28°08' W 015°25'0 0.0
2017-Sep-11 00:00N 28°08' W 015°25'0 0.0
2017-Sep-10 23:21N 28°08' W 015°25'0 0.0
2017-Sep-10 22:51N 28°08' W 015°25'0 0.0
2017-Sep-10 22:21N 28°08' W 015°25'0 0.0
2017-Sep-10 21:51N 28°08' W 015°25'0 0.0
2017-Sep-10 21:21N 28°08' W 015°25'0 0.0
2017-Sep-10 20:54N 28°08' W 015°25'0 0.0
2017-Sep-10 20:24N 28°08' W 015°25'0 0.0
2017-Sep-10 19:54N 28°08' W 015°25'0 0.0
2017-Sep-10 19:24N 28°08' W 015°25'0 0.0
2017-Sep-10 18:54N 28°08' W 015°25'0 0.0
2017-Sep-10 18:24N 28°08' W 015°25'0 0.0
2017-Sep-10 17:54N 28°08' W 015°25'0 0.0
2017-Sep-10 17:24N 28°08' W 015°25'0 0.0
2017-Sep-10 16:54N 28°08' W 015°25'0 0.0
2017-Sep-10 16:12N 28°08' W 015°25'0 0.0
2017-Sep-10 15:57N 28°08' W 015°25'0 0.0
2017-Sep-10 15:24N 28°08' W 015°25'0 0.0
2017-Sep-10 14:57N 28°08' W 015°25'0 0.0
2017-Sep-10 13:57N 28°08' W 015°25'0 0.0
2017-Sep-10 13:27N 28°08' W 015°25'0 0.0
2017-Sep-10 12:57N 28°08' W 015°25'0 0.0
2017-Sep-10 12:27N 28°08' W 015°25'0 0.0
2017-Sep-10 11:57N 28°08' W 015°25'0 0.0
2017-Sep-10 11:27N 28°08' W 015°25'0 0.0
2017-Sep-10 11:00N 28°08' W 015°25'0 0.0
2017-Sep-10 10:30N 28°08' W 015°25'0 0.0
2017-Sep-10 10:00N 28°08' W 015°25'0 0.0
2017-Sep-10 09:30N 28°08' W 015°25'0 0.1
2017-Sep-10 09:00N 28°08' W 015°25'1 2.6
2017-Sep-10 08:30N 28°07' W 015°24'2 4.6
2017-Sep-10 08:00N 28°08' W 015°22'4 8.4
2017-Sep-10 07:30N 28°10' W 015°18'611.5
2017-Sep-10 07:00N 28°14' W 015°13'612.8
2017-Sep-10 06:30N 28°18' W 015°08'  

Dump ship's entire track history